sensor_id;sensor_type;location;lat;lon;timestamp;P1;durP1;ratioP1;P2;durP2;ratioP2
6394;SDS011;3230;42.588;23.358;2023-12-07T00:01:56;14.90;;;7.57;;
6394;SDS011;3230;42.588;23.358;2023-12-07T00:04:21;14.57;;;7.20;;
6394;SDS011;3230;42.588;23.358;2023-12-07T00:06:47;17.97;;;8.10;;
6394;SDS011;3230;42.588;23.358;2023-12-07T00:09:13;25.10;;;8.60;;
6394;SDS011;3230;42.588;23.358;2023-12-07T00:11:38;22.73;;;10.53;;
6394;SDS011;3230;42.588;23.358;2023-12-07T00:14:04;22.23;;;9.87;;
6394;SDS011;3230;42.588;23.358;2023-12-07T00:16:29;27.87;;;11.30;;
6394;SDS011;3230;42.588;23.358;2023-12-07T00:18:54;27.77;;;10.97;;
6394;SDS011;3230;42.588;23.358;2023-12-07T00:21:20;24.63;;;12.03;;
6394;SDS011;3230;42.588;23.358;2023-12-07T00:23:45;31.47;;;13.63;;
6394;SDS011;3230;42.588;23.358;2023-12-07T00:26:10;38.30;;;16.90;;
6394;SDS011;3230;42.588;23.358;2023-12-07T00:28:36;32.43;;;15.77;;
6394;SDS011;3230;42.588;23.358;2023-12-07T00:31:01;21.37;;;9.63;;
6394;SDS011;3230;42.588;23.358;2023-12-07T00:33:27;19.93;;;9.87;;
6394;SDS011;3230;42.588;23.358;2023-12-07T00:35:52;29.17;;;12.67;;
6394;SDS011;3230;42.588;23.358;2023-12-07T00:38:18;27.57;;;13.90;;
6394;SDS011;3230;42.588;23.358;2023-12-07T00:40:43;25.20;;;13.60;;
6394;SDS011;3230;42.588;23.358;2023-12-07T00:43:09;24.43;;;12.50;;
6394;SDS011;3230;42.588;23.358;2023-12-07T00:45:34;24.70;;;12.40;;
6394;SDS011;3230;42.588;23.358;2023-12-07T00:48:00;21.73;;;10.63;;
6394;SDS011;3230;42.588;23.358;2023-12-07T00:50:25;21.80;;;10.50;;
6394;SDS011;3230;42.588;23.358;2023-12-07T00:52:51;21.80;;;10.40;;
6394;SDS011;3230;42.588;23.358;2023-12-07T00:55:16;18.37;;;10.10;;
6394;SDS011;3230;42.588;23.358;2023-12-07T00:57:41;19.73;;;9.77;;
6394;SDS011;3230;42.588;23.358;2023-12-07T01:00:07;19.40;;;10.17;;
6394;SDS011;3230;42.588;23.358;2023-12-07T01:02:33;26.40;;;13.07;;
6394;SDS011;3230;42.588;23.358;2023-12-07T01:04:58;23.13;;;11.73;;
6394;SDS011;3230;42.588;23.358;2023-12-07T01:07:24;27.67;;;12.77;;
6394;SDS011;3230;42.588;23.358;2023-12-07T01:09:49;41.70;;;20.30;;
6394;SDS011;3230;42.588;23.358;2023-12-07T01:12:15;18.87;;;10.20;;
6394;SDS011;3230;42.588;23.358;2023-12-07T01:14:40;15.75;;;8.88;;
6394;SDS011;3230;42.588;23.358;2023-12-07T01:17:06;14.00;;;8.30;;
6394;SDS011;3230;42.588;23.358;2023-12-07T01:19:31;12.53;;;7.43;;
6394;SDS011;3230;42.588;23.358;2023-12-07T01:21:57;14.57;;;7.70;;
6394;SDS011;3230;42.588;23.358;2023-12-07T01:24:22;12.73;;;7.33;;
6394;SDS011;3230;42.588;23.358;2023-12-07T01:26:47;20.70;;;10.17;;
6394;SDS011;3230;42.588;23.358;2023-12-07T01:29:13;18.17;;;11.20;;
6394;SDS011;3230;42.588;23.358;2023-12-07T01:31:45;20.83;;;10.93;;
6394;SDS011;3230;42.588;23.358;2023-12-07T01:34:10;18.40;;;10.02;;
6394;SDS011;3230;42.588;23.358;2023-12-07T01:36:36;18.00;;;9.73;;
6394;SDS011;3230;42.588;23.358;2023-12-07T01:39:01;15.50;;;10.03;;
6394;SDS011;3230;42.588;23.358;2023-12-07T01:41:27;19.93;;;10.00;;
6394;SDS011;3230;42.588;23.358;2023-12-07T01:43:52;20.47;;;10.50;;
6394;SDS011;3230;42.588;23.358;2023-12-07T01:46:18;20.00;;;10.50;;
6394;SDS011;3230;42.588;23.358;2023-12-07T01:48:43;22.90;;;13.07;;
6394;SDS011;3230;42.588;23.358;2023-12-07T01:51:09;25.63;;;14.85;;
6394;SDS011;3230;42.588;23.358;2023-12-07T01:53:37;22.00;;;11.25;;
6394;SDS011;3230;42.588;23.358;2023-12-07T01:56:04;18.95;;;9.25;;
6394;SDS011;3230;42.588;23.358;2023-12-07T01:58:30;15.73;;;9.18;;
6394;SDS011;3230;42.588;23.358;2023-12-07T02:00:56;14.93;;;8.03;;
6394;SDS011;3230;42.588;23.358;2023-12-07T02:03:21;11.23;;;6.80;;
6394;SDS011;3230;42.588;23.358;2023-12-07T02:05:48;15.75;;;8.48;;
6394;SDS011;3230;42.588;23.358;2023-12-07T02:08:14;16.07;;;8.53;;
6394;SDS011;3230;42.588;23.358;2023-12-07T02:10:39;17.00;;;7.97;;
6394;SDS011;3230;42.588;23.358;2023-12-07T02:13:05;27.27;;;9.97;;
6394;SDS011;3230;42.588;23.358;2023-12-07T02:15:32;15.75;;;8.18;;
6394;SDS011;3230;42.588;23.358;2023-12-07T02:21:02;18.95;;;8.35;;
6394;SDS011;3230;42.588;23.358;2023-12-07T02:23:37;14.70;;;7.55;;
6394;SDS011;3230;42.588;23.358;2023-12-07T02:26:05;20.02;;;8.05;;
6394;SDS011;3230;42.588;23.358;2023-12-07T02:28:33;13.73;;;7.35;;
6394;SDS011;3230;42.588;23.358;2023-12-07T02:30:59;14.77;;;7.97;;
6394;SDS011;3230;42.588;23.358;2023-12-07T02:33:24;15.80;;;9.40;;
6394;SDS011;3230;42.588;23.358;2023-12-07T02:35:50;21.70;;;12.40;;
6394;SDS011;3230;42.588;23.358;2023-12-07T02:38:15;22.23;;;12.43;;
6394;SDS011;3230;42.588;23.358;2023-12-07T02:40:42;21.58;;;11.75;;
6394;SDS011;3230;42.588;23.358;2023-12-07T02:43:11;20.25;;;10.13;;
6394;SDS011;3230;42.588;23.358;2023-12-07T02:45:38;14.52;;;8.63;;
6394;SDS011;3230;42.588;23.358;2023-12-07T02:48:04;18.97;;;8.70;;
6394;SDS011;3230;42.588;23.358;2023-12-07T02:50:29;15.47;;;7.70;;
6394;SDS011;3230;42.588;23.358;2023-12-07T02:52:55;18.00;;;9.90;;
6394;SDS011;3230;42.588;23.358;2023-12-07T02:55:21;21.52;;;10.13;;
6394;SDS011;3230;42.588;23.358;2023-12-07T02:57:47;19.30;;;9.43;;
6394;SDS011;3230;42.588;23.358;2023-12-07T03:00:13;19.87;;;11.13;;
6394;SDS011;3230;42.588;23.358;2023-12-07T03:02:39;20.48;;;11.35;;
6394;SDS011;3230;42.588;23.358;2023-12-07T03:05:06;19.17;;;11.02;;
6394;SDS011;3230;42.588;23.358;2023-12-07T03:07:32;20.73;;;10.57;;
6394;SDS011;3230;42.588;23.358;2023-12-07T03:09:58;18.42;;;11.25;;
6394;SDS011;3230;42.588;23.358;2023-12-07T03:12:24;18.90;;;10.10;;
6394;SDS011;3230;42.588;23.358;2023-12-07T03:14:49;21.90;;;11.00;;
6394;SDS011;3230;42.588;23.358;2023-12-07T03:17:15;18.43;;;9.93;;
6394;SDS011;3230;42.588;23.358;2023-12-07T03:19:40;17.20;;;8.90;;
6394;SDS011;3230;42.588;23.358;2023-12-07T03:22:06;25.33;;;10.15;;
6394;SDS011;3230;42.588;23.358;2023-12-07T03:24:35;19.87;;;10.70;;
6394;SDS011;3230;42.588;23.358;2023-12-07T03:27:01;23.42;;;10.80;;
6394;SDS011;3230;42.588;23.358;2023-12-07T03:29:27;19.03;;;10.90;;
6394;SDS011;3230;42.588;23.358;2023-12-07T03:31:52;21.60;;;10.20;;
6394;SDS011;3230;42.588;23.358;2023-12-07T03:34:18;19.00;;;9.50;;
6394;SDS011;3230;42.588;23.358;2023-12-07T03:36:46;19.17;;;9.23;;
6394;SDS011;3230;42.588;23.358;2023-12-07T03:39:16;19.42;;;9.30;;
6394;SDS011;3230;42.588;23.358;2023-12-07T03:41:47;23.42;;;9.57;;
6394;SDS011;3230;42.588;23.358;2023-12-07T03:44:19;48.90;;;10.23;;
6394;SDS011;3230;42.588;23.358;2023-12-07T03:46:44;116.87;;;11.83;;
6394;SDS011;3230;42.588;23.358;2023-12-07T03:49:10;33.37;;;10.87;;
6394;SDS011;3230;42.588;23.358;2023-12-07T03:51:37;110.77;;;11.40;;
6394;SDS011;3230;42.588;23.358;2023-12-07T03:54:03;213.98;;;13.60;;
6394;SDS011;3230;42.588;23.358;2023-12-07T03:56:29;67.03;;;11.00;;
6394;SDS011;3230;42.588;23.358;2023-12-07T03:58:56;175.95;;;13.18;;
6394;SDS011;3230;42.588;23.358;2023-12-07T04:01:25;103.13;;;11.15;;
6394;SDS011;3230;42.588;23.358;2023-12-07T04:03:52;320.55;;;14.57;;
6394;SDS011;3230;42.588;23.358;2023-12-07T04:06:19;114.95;;;11.43;;
6394;SDS011;3230;42.588;23.358;2023-12-07T04:08:45;379.60;;;15.90;;
6394;SDS011;3230;42.588;23.358;2023-12-07T04:11:11;303.33;;;13.87;;
6394;SDS011;3230;42.588;23.358;2023-12-07T04:13:37;113.60;;;9.93;;
6394;SDS011;3230;42.588;23.358;2023-12-07T04:16:03;275.73;;;13.33;;
6394;SDS011;3230;42.588;23.358;2023-12-07T04:18:28;299.20;;;14.60;;
6394;SDS011;3230;42.588;23.358;2023-12-07T04:20:54;380.10;;;16.80;;
6394;SDS011;3230;42.588;23.358;2023-12-07T04:23:19;252.80;;;14.13;;
6394;SDS011;3230;42.588;23.358;2023-12-07T04:25:45;288.77;;;13.73;;
6394;SDS011;3230;42.588;23.358;2023-12-07T04:28:10;225.57;;;12.43;;
6394;SDS011;3230;42.588;23.358;2023-12-07T04:30:36;329.17;;;15.47;;
6394;SDS011;3230;42.588;23.358;2023-12-07T04:33:01;366.20;;;14.67;;
6394;SDS011;3230;42.588;23.358;2023-12-07T04:35:26;378.27;;;16.27;;
6394;SDS011;3230;42.588;23.358;2023-12-07T04:37:53;405.20;;;16.50;;
6394;SDS011;3230;42.588;23.358;2023-12-07T04:40:19;459.80;;;17.13;;
6394;SDS011;3230;42.588;23.358;2023-12-07T04:42:44;475.13;;;18.30;;
6394;SDS011;3230;42.588;23.358;2023-12-07T04:45:10;391.47;;;15.80;;
6394;SDS011;3230;42.588;23.358;2023-12-07T04:47:35;430.97;;;17.90;;
6394;SDS011;3230;42.588;23.358;2023-12-07T04:50:01;278.23;;;15.33;;
6394;SDS011;3230;42.588;23.358;2023-12-07T05:10:14;157.90;;;15.48;;
6394;SDS011;3230;42.588;23.358;2023-12-07T05:12:46;49.75;;;10.10;;
6394;SDS011;3230;42.588;23.358;2023-12-07T05:15:11;48.60;;;9.53;;
6394;SDS011;3230;42.588;23.358;2023-12-07T05:17:37;42.63;;;9.68;;
6394;SDS011;3230;42.588;23.358;2023-12-07T05:20:03;31.10;;;9.77;;
6394;SDS011;3230;42.588;23.358;2023-12-07T05:22:30;39.95;;;11.40;;
6394;SDS011;3230;42.588;23.358;2023-12-07T05:24:55;81.67;;;11.37;;
6394;SDS011;3230;42.588;23.358;2023-12-07T05:27:20;96.07;;;11.67;;
6394;SDS011;3230;42.588;23.358;2023-12-07T05:29:46;42.07;;;9.93;;
6394;SDS011;3230;42.588;23.358;2023-12-07T05:32:11;75.63;;;9.83;;
6394;SDS011;3230;42.588;23.358;2023-12-07T05:34:37;129.07;;;10.80;;
6394;SDS011;3230;42.588;23.358;2023-12-07T05:37:03;123.90;;;10.20;;
6394;SDS011;3230;42.588;23.358;2023-12-07T05:39:29;128.60;;;13.60;;
6394;SDS011;3230;42.588;23.358;2023-12-07T05:41:54;83.87;;;11.97;;
6394;SDS011;3230;42.588;23.358;2023-12-07T05:44:20;139.53;;;9.53;;
6394;SDS011;3230;42.588;23.358;2023-12-07T05:46:47;69.57;;;6.55;;
6394;SDS011;3230;42.588;23.358;2023-12-07T05:49:13;73.73;;;8.30;;
6394;SDS011;3230;42.588;23.358;2023-12-07T05:51:38;85.30;;;8.23;;
6394;SDS011;3230;42.588;23.358;2023-12-07T05:54:04;54.80;;;7.10;;
6394;SDS011;3230;42.588;23.358;2023-12-07T05:56:30;78.13;;;8.18;;
6394;SDS011;3230;42.588;23.358;2023-12-07T05:58:56;83.63;;;9.50;;
6394;SDS011;3230;42.588;23.358;2023-12-07T06:01:22;98.97;;;10.90;;
6394;SDS011;3230;42.588;23.358;2023-12-07T06:03:47;110.07;;;13.83;;
6394;SDS011;3230;42.588;23.358;2023-12-07T06:06:13;101.10;;;15.60;;
6394;SDS011;3230;42.588;23.358;2023-12-07T06:08:38;79.20;;;14.27;;
6394;SDS011;3230;42.588;23.358;2023-12-07T06:11:04;162.43;;;10.60;;
6394;SDS011;3230;42.588;23.358;2023-12-07T06:13:30;170.68;;;12.60;;
6394;SDS011;3230;42.588;23.358;2023-12-07T06:15:56;110.93;;;11.97;;
6394;SDS011;3230;42.588;23.358;2023-12-07T06:18:21;172.40;;;13.30;;
6394;SDS011;3230;42.588;23.358;2023-12-07T06:20:47;113.77;;;13.40;;
6394;SDS011;3230;42.588;23.358;2023-12-07T06:23:12;103.57;;;14.13;;
6394;SDS011;3230;42.588;23.358;2023-12-07T06:25:38;190.87;;;15.67;;
6394;SDS011;3230;42.588;23.358;2023-12-07T06:28:04;80.82;;;12.90;;
6394;SDS011;3230;42.588;23.358;2023-12-07T06:30:29;164.13;;;18.97;;
6394;SDS011;3230;42.588;23.358;2023-12-07T06:32:55;129.60;;;19.00;;
6394;SDS011;3230;42.588;23.358;2023-12-07T06:35:20;246.33;;;17.90;;
6394;SDS011;3230;42.588;23.358;2023-12-07T06:37:46;227.73;;;17.40;;
6394;SDS011;3230;42.588;23.358;2023-12-07T06:40:11;189.10;;;14.07;;
6394;SDS011;3230;42.588;23.358;2023-12-07T06:42:37;221.07;;;18.43;;
6394;SDS011;3230;42.588;23.358;2023-12-07T06:45:03;141.13;;;15.27;;
6394;SDS011;3230;42.588;23.358;2023-12-07T06:47:29;123.95;;;16.35;;
6394;SDS011;3230;42.588;23.358;2023-12-07T06:49:54;171.67;;;13.80;;
6394;SDS011;3230;42.588;23.358;2023-12-07T06:52:23;152.68;;;17.95;;
6394;SDS011;3230;42.588;23.358;2023-12-07T06:54:49;122.53;;;15.63;;
6394;SDS011;3230;42.588;23.358;2023-12-07T06:57:14;121.90;;;12.97;;
6394;SDS011;3230;42.588;23.358;2023-12-07T06:59:40;111.87;;;12.90;;
6394;SDS011;3230;42.588;23.358;2023-12-07T07:02:06;85.60;;;13.30;;
6394;SDS011;3230;42.588;23.358;2023-12-07T07:04:31;48.97;;;11.70;;
6394;SDS011;3230;42.588;23.358;2023-12-07T07:06:57;117.13;;;14.97;;
6394;SDS011;3230;42.588;23.358;2023-12-07T07:09:22;305.50;;;19.07;;
6394;SDS011;3230;42.588;23.358;2023-12-07T07:11:48;153.47;;;18.93;;
6394;SDS011;3230;42.588;23.358;2023-12-07T07:14:14;84.07;;;17.67;;
6394;SDS011;3230;42.588;23.358;2023-12-07T07:16:39;120.10;;;21.70;;
6394;SDS011;3230;42.588;23.358;2023-12-07T07:19:04;58.83;;;20.13;;
6394;SDS011;3230;42.588;23.358;2023-12-07T07:21:30;50.00;;;18.70;;
6394;SDS011;3230;42.588;23.358;2023-12-07T07:23:56;52.27;;;20.70;;
6394;SDS011;3230;42.588;23.358;2023-12-07T07:26:22;50.70;;;18.97;;
6394;SDS011;3230;42.588;23.358;2023-12-07T07:28:47;41.27;;;16.57;;
6394;SDS011;3230;42.588;23.358;2023-12-07T07:31:13;43.90;;;15.50;;
6394;SDS011;3230;42.588;23.358;2023-12-07T07:33:38;44.27;;;17.30;;
6394;SDS011;3230;42.588;23.358;2023-12-07T07:36:03;26.63;;;12.53;;
6394;SDS011;3230;42.588;23.358;2023-12-07T07:38:29;23.00;;;9.07;;
6394;SDS011;3230;42.588;23.358;2023-12-07T07:40:54;15.70;;;7.10;;
6394;SDS011;3230;42.588;23.358;2023-12-07T07:43:20;13.07;;;7.03;;
6394;SDS011;3230;42.588;23.358;2023-12-07T07:45:46;15.27;;;7.03;;
6394;SDS011;3230;42.588;23.358;2023-12-07T07:48:11;20.93;;;9.67;;
6394;SDS011;3230;42.588;23.358;2023-12-07T07:50:37;19.63;;;10.47;;
6394;SDS011;3230;42.588;23.358;2023-12-07T07:53:03;19.90;;;10.17;;
6394;SDS011;3230;42.588;23.358;2023-12-07T07:55:29;21.53;;;10.80;;
6394;SDS011;3230;42.588;23.358;2023-12-07T07:57:55;16.43;;;9.67;;
6394;SDS011;3230;42.588;23.358;2023-12-07T08:00:20;17.53;;;9.50;;
6394;SDS011;3230;42.588;23.358;2023-12-07T08:02:46;15.47;;;8.03;;
6394;SDS011;3230;42.588;23.358;2023-12-07T08:05:11;13.60;;;7.80;;
6394;SDS011;3230;42.588;23.358;2023-12-07T08:07:37;13.00;;;7.40;;
6394;SDS011;3230;42.588;23.358;2023-12-07T08:10:05;17.85;;;9.30;;
6394;SDS011;3230;42.588;23.358;2023-12-07T08:12:31;15.63;;;7.90;;
6394;SDS011;3230;42.588;23.358;2023-12-07T08:14:56;21.10;;;9.80;;
6394;SDS011;3230;42.588;23.358;2023-12-07T08:17:22;15.10;;;7.73;;
6394;SDS011;3230;42.588;23.358;2023-12-07T08:19:47;20.23;;;9.67;;
6394;SDS011;3230;42.588;23.358;2023-12-07T08:22:12;24.00;;;11.30;;
6394;SDS011;3230;42.588;23.358;2023-12-07T08:24:38;30.23;;;9.40;;
6394;SDS011;3230;42.588;23.358;2023-12-07T08:27:04;38.95;;;10.00;;
6394;SDS011;3230;42.588;23.358;2023-12-07T08:29:30;39.17;;;10.27;;
6394;SDS011;3230;42.588;23.358;2023-12-07T08:31:55;44.03;;;8.40;;
6394;SDS011;3230;42.588;23.358;2023-12-07T08:34:21;74.50;;;10.63;;
6394;SDS011;3230;42.588;23.358;2023-12-07T08:36:46;177.57;;;11.00;;
6394;SDS011;3230;42.588;23.358;2023-12-07T08:39:11;83.03;;;10.47;;
6394;SDS011;3230;42.588;23.358;2023-12-07T08:41:37;111.57;;;11.33;;
6394;SDS011;3230;42.588;23.358;2023-12-07T08:44:02;147.07;;;10.20;;
6394;SDS011;3230;42.588;23.358;2023-12-07T08:46:28;173.77;;;11.10;;
6394;SDS011;3230;42.588;23.358;2023-12-07T08:48:54;85.50;;;9.73;;
6394;SDS011;3230;42.588;23.358;2023-12-07T08:51:21;57.15;;;7.25;;
6394;SDS011;3230;42.588;23.358;2023-12-07T08:53:46;86.60;;;8.50;;
6394;SDS011;3230;42.588;23.358;2023-12-07T08:56:12;56.90;;;6.17;;
6394;SDS011;3230;42.588;23.358;2023-12-07T08:58:38;129.13;;;7.67;;
6394;SDS011;3230;42.588;23.358;2023-12-07T09:01:04;150.00;;;9.25;;
6394;SDS011;3230;42.588;23.358;2023-12-07T09:03:30;162.48;;;9.07;;
6394;SDS011;3230;42.588;23.358;2023-12-07T09:05:57;147.35;;;7.80;;
6394;SDS011;3230;42.588;23.358;2023-12-07T09:08:22;229.65;;;11.20;;
6394;SDS011;3230;42.588;23.358;2023-12-07T09:10:48;85.33;;;5.67;;
6394;SDS011;3230;42.588;23.358;2023-12-07T09:13:16;150.60;;;7.07;;
6394;SDS011;3230;42.588;23.358;2023-12-07T09:15:41;36.07;;;4.60;;
6394;SDS011;3230;42.588;23.358;2023-12-07T09:18:07;137.97;;;6.90;;
6394;SDS011;3230;42.588;23.358;2023-12-07T09:20:33;28.83;;;3.53;;
6394;SDS011;3230;42.588;23.358;2023-12-07T09:22:58;68.17;;;5.70;;
6394;SDS011;3230;42.588;23.358;2023-12-07T09:25:23;32.63;;;5.00;;
6394;SDS011;3230;42.588;23.358;2023-12-07T09:27:53;29.77;;;4.35;;
6394;SDS011;3230;42.588;23.358;2023-12-07T09:30:18;19.33;;;4.80;;
6394;SDS011;3230;42.588;23.358;2023-12-07T09:32:44;22.70;;;7.17;;
6394;SDS011;3230;42.588;23.358;2023-12-07T09:35:09;11.40;;;4.90;;
6394;SDS011;3230;42.588;23.358;2023-12-07T09:37:44;28.88;;;3.40;;
6394;SDS011;3230;42.588;23.358;2023-12-07T09:40:20;9.20;;;3.10;;
6394;SDS011;3230;42.588;23.358;2023-12-07T09:42:46;3.58;;;2.60;;
6394;SDS011;3230;42.588;23.358;2023-12-07T09:45:13;4.57;;;2.80;;
6394;SDS011;3230;42.588;23.358;2023-12-07T09:47:41;4.30;;;2.72;;
6394;SDS011;3230;42.588;23.358;2023-12-07T09:50:07;2.70;;;2.50;;
6394;SDS011;3230;42.588;23.358;2023-12-07T09:52:34;2.58;;;2.20;;
6394;SDS011;3230;42.588;23.358;2023-12-07T09:55:00;3.22;;;2.17;;
6394;SDS011;3230;42.588;23.358;2023-12-07T09:57:27;3.85;;;1.75;;
6394;SDS011;3230;42.588;23.358;2023-12-07T09:59:52;1.70;;;1.60;;
6394;SDS011;3230;42.588;23.358;2023-12-07T10:02:18;3.23;;;1.80;;
6394;SDS011;3230;42.588;23.358;2023-12-07T10:04:43;2.90;;;2.00;;
6394;SDS011;3230;42.588;23.358;2023-12-07T10:07:09;3.00;;;1.67;;
6394;SDS011;3230;42.588;23.358;2023-12-07T10:09:38;1.60;;;1.50;;
6394;SDS011;3230;42.588;23.358;2023-12-07T10:12:04;3.47;;;3.15;;
6394;SDS011;3230;42.588;23.358;2023-12-07T10:14:30;1.57;;;1.47;;
6394;SDS011;3230;42.588;23.358;2023-12-07T10:16:56;1.33;;;1.20;;
6394;SDS011;3230;42.588;23.358;2023-12-07T10:19:22;2.23;;;2.00;;
6394;SDS011;3230;42.588;23.358;2023-12-07T10:21:48;1.77;;;1.42;;
6394;SDS011;3230;42.588;23.358;2023-12-07T10:24:21;1.23;;;1.13;;
6394;SDS011;3230;42.588;23.358;2023-12-07T10:26:49;1.80;;;1.70;;
6394;SDS011;3230;42.588;23.358;2023-12-07T10:29:17;1.20;;;1.10;;
6394;SDS011;3230;42.588;23.358;2023-12-07T10:31:43;1.65;;;1.45;;
6394;SDS011;3230;42.588;23.358;2023-12-07T10:34:09;1.03;;;0.83;;
6394;SDS011;3230;42.588;23.358;2023-12-07T10:36:34;1.40;;;1.30;;
6394;SDS011;3230;42.588;23.358;2023-12-07T10:38:59;2.10;;;1.47;;
6394;SDS011;3230;42.588;23.358;2023-12-07T10:41:25;6.60;;;4.43;;
6394;SDS011;3230;42.588;23.358;2023-12-07T10:43:54;2.83;;;2.20;;
6394;SDS011;3230;42.588;23.358;2023-12-07T10:46:25;2.83;;;1.60;;
6394;SDS011;3230;42.588;23.358;2023-12-07T10:48:52;1.27;;;1.17;;
6394;SDS011;3230;42.588;23.358;2023-12-07T10:51:28;0.80;;;0.80;;
6394;SDS011;3230;42.588;23.358;2023-12-07T10:54:01;0.85;;;0.85;;
6394;SDS011;3230;42.588;23.358;2023-12-07T10:56:28;1.50;;;1.40;;
6394;SDS011;3230;42.588;23.358;2023-12-07T10:58:57;1.92;;;1.63;;
6394;SDS011;3230;42.588;23.358;2023-12-07T11:01:24;3.55;;;2.95;;
6394;SDS011;3230;42.588;23.358;2023-12-07T11:03:50;1.40;;;1.30;;
6394;SDS011;3230;42.588;23.358;2023-12-07T11:06:18;1.70;;;1.60;;
6394;SDS011;3230;42.588;23.358;2023-12-07T11:08:50;2.20;;;1.65;;
6394;SDS011;3230;42.588;23.358;2023-12-07T11:14:13;1.67;;;1.58;;
6394;SDS011;3230;42.588;23.358;2023-12-07T11:16:41;1.65;;;1.50;;
6394;SDS011;3230;42.588;23.358;2023-12-07T11:22:05;1.88;;;1.30;;
6394;SDS011;3230;42.588;23.358;2023-12-07T11:24:32;1.70;;;0.95;;
6394;SDS011;3230;42.588;23.358;2023-12-07T11:26:57;1.57;;;1.20;;
6394;SDS011;3230;42.588;23.358;2023-12-07T11:29:23;8.57;;;2.40;;
6394;SDS011;3230;42.588;23.358;2023-12-07T11:31:50;1.63;;;1.30;;
6394;SDS011;3230;42.588;23.358;2023-12-07T11:37:25;1.35;;;1.25;;
6394;SDS011;3230;42.588;23.358;2023-12-07T11:40:33;1.25;;;1.02;;
6394;SDS011;3230;42.588;23.358;2023-12-07T11:43:00;1.50;;;1.23;;
6394;SDS011;3230;42.588;23.358;2023-12-07T11:45:36;1.08;;;0.98;;
6394;SDS011;3230;42.588;23.358;2023-12-07T11:48:08;1.00;;;0.82;;
6394;SDS011;3230;42.588;23.358;2023-12-07T11:50:34;0.90;;;0.90;;
6394;SDS011;3230;42.588;23.358;2023-12-07T11:52:59;0.87;;;0.87;;
6394;SDS011;3230;42.588;23.358;2023-12-07T11:55:25;3.20;;;2.90;;
6394;SDS011;3230;42.588;23.358;2023-12-07T11:57:50;1.07;;;1.07;;
6394;SDS011;3230;42.588;23.358;2023-12-07T12:00:16;1.27;;;1.03;;
6394;SDS011;3230;42.588;23.358;2023-12-07T12:02:42;0.70;;;0.60;;
6394;SDS011;3230;42.588;23.358;2023-12-07T12:05:09;1.17;;;1.07;;
6394;SDS011;3230;42.588;23.358;2023-12-07T12:07:35;3.42;;;3.13;;
6394;SDS011;3230;42.588;23.358;2023-12-07T12:10:02;0.70;;;0.70;;
6394;SDS011;3230;42.588;23.358;2023-12-07T12:12:34;0.80;;;0.80;;
6394;SDS011;3230;42.588;23.358;2023-12-07T12:14:59;1.90;;;1.80;;
6394;SDS011;3230;42.588;23.358;2023-12-07T12:17:25;0.83;;;0.80;;
6394;SDS011;3230;42.588;23.358;2023-12-07T12:19:50;4.07;;;1.80;;
6394;SDS011;3230;42.588;23.358;2023-12-07T12:22:19;0.98;;;0.98;;
6394;SDS011;3230;42.588;23.358;2023-12-07T12:24:45;1.20;;;1.10;;
6394;SDS011;3230;42.588;23.358;2023-12-07T12:27:11;2.30;;;1.90;;
6394;SDS011;3230;42.588;23.358;2023-12-07T12:29:38;2.53;;;2.13;;
6394;SDS011;3230;42.588;23.358;2023-12-07T12:32:05;1.48;;;1.38;;
6394;SDS011;3230;42.588;23.358;2023-12-07T12:34:34;1.40;;;1.30;;
6394;SDS011;3230;42.588;23.358;2023-12-07T12:36:59;2.42;;;2.22;;
6394;SDS011;3230;42.588;23.358;2023-12-07T12:39:28;1.10;;;1.00;;
6394;SDS011;3230;42.588;23.358;2023-12-07T12:41:56;0.80;;;0.80;;
6394;SDS011;3230;42.588;23.358;2023-12-07T12:44:24;2.05;;;1.30;;
6394;SDS011;3230;42.588;23.358;2023-12-07T12:46:50;1.07;;;0.97;;
6394;SDS011;3230;42.588;23.358;2023-12-07T12:49:15;1.57;;;1.47;;
6394;SDS011;3230;42.588;23.358;2023-12-07T12:51:41;1.30;;;1.20;;
6394;SDS011;3230;42.588;23.358;2023-12-07T12:54:09;1.80;;;1.20;;
6394;SDS011;3230;42.588;23.358;2023-12-07T12:56:36;1.02;;;1.00;;
6394;SDS011;3230;42.588;23.358;2023-12-07T12:59:01;2.10;;;1.10;;
6394;SDS011;3230;42.588;23.358;2023-12-07T13:01:27;2.70;;;1.27;;
6394;SDS011;3230;42.588;23.358;2023-12-07T13:03:52;1.70;;;1.33;;
6394;SDS011;3230;42.588;23.358;2023-12-07T13:06:18;1.50;;;1.10;;
6394;SDS011;3230;42.588;23.358;2023-12-07T13:08:43;0.83;;;0.80;;
6394;SDS011;3230;42.588;23.358;2023-12-07T13:11:14;0.73;;;0.73;;
6394;SDS011;3230;42.588;23.358;2023-12-07T13:13:40;0.70;;;0.70;;
6394;SDS011;3230;42.588;23.358;2023-12-07T13:16:06;1.03;;;0.97;;
6394;SDS011;3230;42.588;23.358;2023-12-07T13:18:31;0.70;;;0.70;;
6394;SDS011;3230;42.588;23.358;2023-12-07T13:20:57;0.70;;;0.70;;
6394;SDS011;3230;42.588;23.358;2023-12-07T13:23:22;1.37;;;0.80;;
6394;SDS011;3230;42.588;23.358;2023-12-07T13:25:47;1.00;;;0.90;;
6394;SDS011;3230;42.588;23.358;2023-12-07T13:28:13;1.17;;;1.00;;
6394;SDS011;3230;42.588;23.358;2023-12-07T13:30:39;1.00;;;0.90;;
6394;SDS011;3230;42.588;23.358;2023-12-07T13:33:04;1.00;;;1.00;;
6394;SDS011;3230;42.588;23.358;2023-12-07T13:35:30;1.20;;;1.10;;
6394;SDS011;3230;42.588;23.358;2023-12-07T13:37:55;1.10;;;0.90;;
6394;SDS011;3230;42.588;23.358;2023-12-07T13:40:21;1.43;;;1.10;;
6394;SDS011;3230;42.588;23.358;2023-12-07T13:42:46;0.97;;;0.97;;
6394;SDS011;3230;42.588;23.358;2023-12-07T13:45:11;0.80;;;0.70;;
6394;SDS011;3230;42.588;23.358;2023-12-07T13:47:37;0.63;;;0.63;;
6394;SDS011;3230;42.588;23.358;2023-12-07T13:50:03;0.90;;;0.90;;
6394;SDS011;3230;42.588;23.358;2023-12-07T13:52:30;2.63;;;1.50;;
6394;SDS011;3230;42.588;23.358;2023-12-07T13:54:58;1.60;;;1.50;;
6394;SDS011;3230;42.588;23.358;2023-12-07T13:57:24;1.00;;;1.00;;
6394;SDS011;3230;42.588;23.358;2023-12-07T13:59:50;1.17;;;1.10;;
6394;SDS011;3230;42.588;23.358;2023-12-07T14:02:16;1.37;;;1.27;;
6394;SDS011;3230;42.588;23.358;2023-12-07T14:04:41;1.57;;;1.27;;
6394;SDS011;3230;42.588;23.358;2023-12-07T14:09:46;1.70;;;1.35;;
6394;SDS011;3230;42.588;23.358;2023-12-07T14:12:13;1.50;;;1.40;;
6394;SDS011;3230;42.588;23.358;2023-12-07T14:14:39;0.90;;;0.90;;
6394;SDS011;3230;42.588;23.358;2023-12-07T14:17:05;2.08;;;1.95;;
6394;SDS011;3230;42.588;23.358;2023-12-07T14:19:31;2.17;;;1.57;;
6394;SDS011;3230;42.588;23.358;2023-12-07T14:21:57;1.93;;;1.77;;
6394;SDS011;3230;42.588;23.358;2023-12-07T14:24:29;2.17;;;1.95;;
6394;SDS011;3230;42.588;23.358;2023-12-07T14:26:56;2.10;;;1.90;;
6394;SDS011;3230;42.588;23.358;2023-12-07T14:29:22;1.13;;;1.02;;
6394;SDS011;3230;42.588;23.358;2023-12-07T14:31:49;1.67;;;1.33;;
6394;SDS011;3230;42.588;23.358;2023-12-07T14:34:15;1.27;;;1.10;;
6394;SDS011;3230;42.588;23.358;2023-12-07T14:36:41;2.73;;;2.00;;
6394;SDS011;3230;42.588;23.358;2023-12-07T14:39:09;1.60;;;1.50;;
6394;SDS011;3230;42.588;23.358;2023-12-07T14:41:34;2.90;;;2.00;;
6394;SDS011;3230;42.588;23.358;2023-12-07T14:44:00;2.03;;;1.55;;
6394;SDS011;3230;42.588;23.358;2023-12-07T14:46:26;2.10;;;1.43;;
6394;SDS011;3230;42.588;23.358;2023-12-07T14:48:51;2.43;;;1.90;;
6394;SDS011;3230;42.588;23.358;2023-12-07T14:51:21;3.10;;;2.50;;
6394;SDS011;3230;42.588;23.358;2023-12-07T14:53:46;1.52;;;1.42;;
6394;SDS011;3230;42.588;23.358;2023-12-07T14:56:12;2.77;;;1.90;;
6394;SDS011;3230;42.588;23.358;2023-12-07T14:58:37;1.30;;;1.20;;
6394;SDS011;3230;42.588;23.358;2023-12-07T15:01:05;3.15;;;1.50;;
6394;SDS011;3230;42.588;23.358;2023-12-07T15:03:31;1.42;;;1.30;;
6394;SDS011;3230;42.588;23.358;2023-12-07T15:05:56;1.97;;;1.60;;
6394;SDS011;3230;42.588;23.358;2023-12-07T15:08:21;2.63;;;2.23;;
6394;SDS011;3230;42.588;23.358;2023-12-07T15:10:47;5.30;;;3.70;;
6394;SDS011;3230;42.588;23.358;2023-12-07T15:13:17;16.92;;;9.35;;